createdAt,value
2019-04-20T00:00:58.504Z,11.07
2019-04-20T00:03:32.195Z,12.57
2019-04-20T00:05:59.331Z,8.57
2019-04-20T00:08:32.814Z,10.87
2019-04-20T00:11:05.782Z,11.33
2019-04-20T00:13:40.716Z,12.43
2019-04-20T00:16:02.019Z,12.50
2019-04-20T00:18:36.535Z,13.50
2019-04-20T00:21:20.865Z,13.63
2019-04-20T00:23:53.307Z,11.73
2019-04-20T00:27:08.510Z,10.27
2019-04-20T00:29:24.873Z,10.37
2019-04-20T00:31:53.608Z,10.10
2019-04-20T00:34:18.432Z,13.07
2019-04-20T00:36:43.316Z,10.20
2019-04-20T00:39:14.974Z,12.00
2019-04-20T00:41:49.056Z,11.83
2019-04-20T00:44:21.938Z,12.13
2019-04-20T00:46:55.583Z,12.97
2019-04-20T00:49:30.511Z,14.47
2019-04-20T00:52:13.151Z,11.57
2019-04-20T00:54:18.549Z,10.73
2019-04-20T00:56:47.861Z,11.73
2019-04-20T00:59:32.073Z,13.97
2019-04-20T01:02:03.747Z,12.93
2019-04-20T01:04:37.844Z,11.17
2019-04-20T01:07:23.291Z,11.73
2019-04-20T01:09:58.340Z,13.53
2019-04-20T01:12:30.277Z,12.30
2019-04-20T01:15:02.733Z,12.90
2019-04-20T01:17:29.596Z,13.93
2019-04-20T01:19:58.656Z,12.03
2019-04-20T01:22:30.008Z,12.37
2019-04-20T01:25:06.712Z,12.93
2019-04-20T01:27:45.031Z,13.57
2019-04-20T01:30:10.759Z,14.67
2019-04-20T01:32:50.721Z,14.13
2019-04-20T01:35:16.740Z,12.30
2019-04-20T01:37:46.554Z,15.13
2019-04-20T01:40:06.186Z,12.73
2019-04-20T01:42:36.115Z,14.40
2019-04-20T01:45:14.633Z,13.67
2019-04-20T01:47:45.411Z,14.33
2019-04-20T01:50:14.168Z,13.13
2019-04-20T01:52:50.732Z,13.27
2019-04-20T01:55:39.112Z,15.00
2019-04-20T01:58:17.491Z,13.87
2019-04-20T02:00:48.146Z,14.23
2019-04-20T02:03:40.186Z,13.80
2019-04-20T02:06:11.642Z,15.43
2019-04-20T02:08:37.877Z,19.20
2019-04-20T02:11:09.382Z,18.73
2019-04-20T02:13:44.402Z,14.50
2019-04-20T02:16:16.883Z,17.33
2019-04-20T02:19:00.403Z,13.87
2019-04-20T02:21:27.618Z,14.30
2019-04-20T02:23:49.981Z,18.43
2019-04-20T02:26:14.193Z,13.70
2019-04-20T02:29:07.993Z,16.27
2019-04-20T02:31:55.396Z,17.37
2019-04-20T02:37:49.355Z,18.13
2019-04-20T02:45:18.241Z,15.83
2019-04-20T02:47:53.173Z,18.17
2019-04-20T02:50:09.135Z,19.63
2019-04-20T02:55:14.775Z,17.53
2019-04-20T02:57:47.919Z,19.90
2019-04-20T03:00:14.596Z,16.57
2019-04-20T03:02:29.967Z,16.93
2019-04-20T03:04:52.370Z,18.37
2019-04-20T03:07:27.651Z,19.87
2019-04-20T03:10:09.468Z,18.03
2019-04-20T03:12:38.560Z,17.17
2019-04-20T03:15:00.696Z,18.07
2019-04-20T03:17:42.149Z,20.17
2019-04-20T03:20:06.875Z,18.57
2019-04-20T03:23:05.411Z,17.67
2019-04-20T03:25:17.940Z,19.07
2019-04-20T03:27:45.828Z,16.73
2019-04-20T03:33:23.878Z,16.20
2019-04-20T03:35:43.470Z,16.23
2019-04-20T03:38:10.703Z,18.60
2019-04-20T03:40:37.340Z,17.63
2019-04-20T03:42:52.815Z,16.40
2019-04-20T03:45:24.539Z,18.67
2019-04-20T03:48:03.088Z,17.03
2019-04-20T03:50:47.473Z,15.57
2019-04-20T03:53:19.157Z,17.57
2019-04-20T03:56:11.707Z,18.80
2019-04-20T03:58:45.328Z,17.93
2019-04-20T04:01:35.920Z,17.87
2019-04-20T04:04:07.868Z,17.17
2019-04-20T04:06:24.241Z,14.93
2019-04-20T04:08:59.922Z,16.77
2019-04-20T04:11:31.499Z,16.40
2019-04-20T04:13:46.343Z,17.07
2019-04-20T04:16:18.266Z,15.50
2019-04-20T04:18:54.456Z,16.27
2019-04-20T04:21:27.124Z,16.20
2019-04-20T04:24:02.417Z,16.53
2019-04-20T04:26:34.405Z,14.17
2019-04-20T04:29:13.576Z,18.80
2019-04-20T04:31:50.770Z,17.20
2019-04-20T04:34:07.387Z,16.13
2019-04-20T04:36:44.202Z,17.07
2019-04-20T04:39:19.281Z,16.47
2019-04-20T04:41:45.554Z,14.73
2019-04-20T04:44:11.134Z,16.43
2019-04-20T04:46:26.878Z,14.87
2019-04-20T04:49:06.892Z,19.30
2019-04-20T04:51:38.566Z,17.90
2019-04-20T04:54:10.154Z,17.60
2019-04-20T04:56:30.345Z,14.47
2019-04-20T04:59:00.334Z,18.47
2019-04-20T05:01:32.722Z,17.77
2019-04-20T05:04:23.317Z,18.63
2019-04-20T05:06:45.817Z,18.07
2019-04-20T05:09:05.833Z,20.77
2019-04-20T05:11:34.990Z,20.80
2019-04-20T05:14:08.693Z,19.80
2019-04-20T05:16:50.992Z,18.43
2019-04-20T05:19:41.637Z,20.00
2019-04-20T05:22:08.142Z,19.47
2019-04-20T05:24:51.826Z,16.00
2019-04-20T05:27:42.299Z,18.03
2019-04-20T05:29:50.790Z,17.80
2019-04-20T05:32:34.973Z,20.37
2019-04-20T05:35:15.252Z,19.13
2019-04-20T05:37:49.817Z,18.63
2019-04-20T05:40:16.479Z,19.70
2019-04-20T05:43:00.432Z,18.47
2019-04-20T05:45:28.851Z,20.43
2019-04-20T05:48:04.579Z,20.73
2019-04-20T05:50:32.886Z,19.47
2019-04-20T05:53:08.803Z,22.73
2019-04-20T05:55:35.797Z,19.30
2019-04-20T05:58:08.933Z,18.77
2019-04-20T06:00:45.545Z,21.83
2019-04-20T06:03:05.617Z,19.83
2019-04-20T06:05:48.877Z,20.83
2019-04-20T06:08:20.452Z,18.80
2019-04-20T06:10:46.210Z,21.43
2019-04-20T06:13:29.923Z,18.93
2019-04-20T06:16:07.417Z,24.67
2019-04-20T06:18:44.313Z,21.73
2019-04-20T06:21:27.774Z,19.90
2019-04-20T06:24:06.536Z,20.07
2019-04-20T06:26:43.751Z,19.90
2019-04-20T06:28:58.183Z,19.87
2019-04-20T06:31:36.011Z,16.20
2019-04-20T06:47:04.111Z,20.13
2019-04-20T06:52:24.336Z,20.13
2019-04-20T06:55:36.119Z,19.83
2019-04-20T06:57:45.450Z,21.80
2019-04-20T07:00:26.082Z,24.80
2019-04-20T07:05:21.334Z,17.40
2019-04-20T07:12:45.103Z,19.50
2019-04-20T07:15:18.891Z,21.33
2019-04-20T07:17:58.341Z,19.23
2019-04-20T07:20:51.693Z,17.53
2019-04-20T07:23:23.714Z,17.57
2019-04-20T07:25:48.964Z,18.23
2019-04-20T07:28:19.599Z,19.77
2019-04-20T07:30:46.269Z,22.00
2019-04-20T07:33:24.548Z,21.27
2019-04-20T07:35:49.353Z,18.00
2019-04-20T07:40:51.337Z,19.73
2019-04-20T07:43:21.365Z,19.70
2019-04-20T07:45:50.155Z,19.63
2019-04-20T07:48:21.323Z,19.37
2019-04-20T07:50:46.240Z,17.17
2019-04-20T07:53:22.941Z,17.77
2019-04-20T07:55:58.146Z,20.23
2019-04-20T07:58:21.840Z,19.93
2019-04-20T08:01:09.018Z,19.40
2019-04-20T08:03:38.142Z,16.40
2019-04-20T08:06:14.272Z,17.63
2019-04-20T08:08:54.075Z,19.40
2019-04-20T08:11:28.811Z,17.77
2019-04-20T08:14:07.120Z,15.57
2019-04-20T08:16:58.648Z,15.93
2019-04-20T08:19:19.962Z,20.80
2019-04-20T08:21:35.163Z,17.73
2019-04-20T08:24:02.410Z,17.73
2019-04-20T08:26:23.311Z,15.17
2019-04-20T08:28:58.069Z,16.90
2019-04-20T08:32:08.538Z,17.40
2019-04-20T08:34:43.091Z,17.30
2019-04-20T08:37:07.002Z,14.30
2019-04-20T08:42:13.076Z,16.87
2019-04-20T08:45:02.995Z,16.80
2019-04-20T08:47:27.192Z,15.70
2019-04-20T08:50:17.083Z,15.90
2019-04-20T08:53:06.161Z,16.60
2019-04-20T08:55:09.300Z,15.37
2019-04-20T08:57:25.134Z,14.47
2019-04-20T08:59:54.455Z,18.47
2019-04-20T09:02:24.041Z,15.70
2019-04-20T09:05:01.038Z,15.13
2019-04-20T09:07:28.244Z,16.90
2019-04-20T09:10:21.881Z,15.40
2019-04-20T09:12:39.498Z,14.93
2019-04-20T09:14:57.362Z,14.07
2019-04-20T09:17:54.065Z,16.47
2019-04-20T09:20:31.753Z,13.90
2019-04-20T09:23:21.314Z,15.37
2019-04-20T09:28:22.300Z,11.47
2019-04-20T09:30:53.235Z,12.03
2019-04-20T09:34:08.837Z,15.17
2019-04-20T09:36:42.044Z,12.00
2019-04-20T09:39:16.498Z,13.07
2019-04-20T09:42:01.688Z,12.37
2019-04-20T09:44:38.449Z,11.23
2019-04-20T09:47:04.648Z,9.47
2019-04-20T09:49:46.020Z,11.70
2019-04-20T09:52:17.084Z,10.43
2019-04-20T09:54:53.041Z,11.80
2019-04-20T09:57:26.688Z,11.50
2019-04-20T09:59:58.737Z,10.37
2019-04-20T10:02:16.939Z,13.17
2019-04-20T10:04:39.849Z,11.03
2019-04-20T10:07:14.253Z,10.73
2019-04-20T10:09:44.838Z,10.47
2019-04-20T10:12:11.263Z,12.53
2019-04-20T10:14:40.742Z,12.83
2019-04-20T10:17:09.943Z,11.43
2019-04-20T10:19:40.083Z,10.23
2019-04-20T10:22:10.873Z,11.40
2019-04-20T10:24:40.318Z,12.50
2019-04-20T10:27:10.518Z,13.07
2019-04-20T10:29:39.794Z,14.00
2019-04-20T10:32:12.540Z,11.20
2019-04-20T10:34:40.934Z,13.10
2019-04-20T10:37:13.993Z,11.03
2019-04-20T10:39:44.557Z,12.90
2019-04-20T10:42:14.263Z,11.00
2019-04-20T10:44:45.095Z,9.33
2019-04-20T10:47:14.830Z,11.13
2019-04-20T10:49:45.023Z,11.30
2019-04-20T10:52:15.748Z,10.43
2019-04-20T10:54:44.903Z,9.47
2019-04-20T10:57:15.419Z,11.50
2019-04-20T10:59:45.720Z,11.23
2019-04-20T11:02:16.039Z,13.70
2019-04-20T11:04:46.491Z,11.67
2019-04-20T11:07:16.621Z,9.47
2019-04-20T11:09:47.122Z,11.57
2019-04-20T11:12:16.983Z,14.50
2019-04-20T11:14:46.089Z,13.07
2019-04-20T11:17:16.356Z,13.30
2019-04-20T11:19:45.807Z,11.40
2019-04-20T11:22:14.951Z,13.27
2019-04-20T11:24:44.127Z,11.27
2019-04-20T11:27:14.289Z,10.10
2019-04-20T11:29:44.391Z,10.53
2019-04-20T11:32:14.256Z,11.07
2019-04-20T11:34:45.295Z,13.17
2019-04-20T11:37:15.300Z,14.03
2019-04-20T11:39:45.271Z,13.73
2019-04-20T11:42:14.656Z,12.60
2019-04-20T11:44:44.752Z,12.73
2019-04-20T11:47:14.737Z,16.73
2019-04-20T11:49:44.223Z,15.23
2019-04-20T11:52:16.367Z,12.83
2019-04-20T11:54:44.413Z,12.67
2019-04-20T11:57:15.325Z,16.47
2019-04-20T11:59:45.342Z,14.87
2019-04-20T12:02:37.216Z,12.00
2019-04-20T12:05:20.162Z,20.23
2019-04-20T12:07:55.425Z,13.10
2019-04-20T12:10:26.416Z,17.13
2019-04-20T12:12:55.989Z,15.77
2019-04-20T12:15:26.648Z,15.97
2019-04-20T12:17:55.819Z,13.67
2019-04-20T12:20:25.165Z,13.70
2019-04-20T12:22:54.645Z,17.57
2019-04-20T12:25:24.106Z,13.67
2019-04-20T12:27:57.038Z,14.67
2019-04-20T12:30:25.786Z,14.93
2019-04-20T12:33:00.149Z,14.63
2019-04-20T12:35:26.476Z,13.63
2019-04-20T12:37:58.881Z,13.30
2019-04-20T12:40:28.286Z,15.73
2019-04-20T12:42:57.668Z,15.50
2019-04-20T12:45:27.658Z,12.67
2019-04-20T12:47:57.598Z,14.87
2019-04-20T12:50:27.666Z,14.93
2019-04-20T12:52:57.130Z,14.90
2019-04-20T12:55:26.426Z,12.33
2019-04-20T12:57:56.673Z,13.60
2019-04-20T13:00:41.698Z,14.63
2019-04-20T13:03:11.664Z,13.17
2019-04-20T13:05:41.069Z,16.37
2019-04-20T13:08:13.776Z,13.57
2019-04-20T13:10:46.572Z,10.70
2019-04-20T13:13:38.695Z,12.40
2019-04-20T13:16:16.342Z,13.07
2019-04-20T13:19:05.676Z,11.93
2019-04-20T13:21:34.956Z,13.53
2019-04-20T13:24:05.097Z,11.87
2019-04-20T13:26:35.184Z,13.20
2019-04-20T13:29:04.798Z,10.33
2019-04-20T13:31:34.103Z,10.63
2019-04-20T13:34:03.663Z,9.23
2019-04-20T13:36:32.983Z,9.87
2019-04-20T13:39:02.117Z,11.07
2019-04-20T13:41:31.750Z,10.50
2019-04-20T13:44:03.138Z,12.67
2019-04-20T13:46:33.345Z,13.70
2019-04-20T13:49:03.019Z,12.60
2019-04-20T13:51:32.907Z,10.10
2019-04-20T13:54:06.324Z,9.83
2019-04-20T13:56:34.015Z,10.87
2019-04-20T13:59:21.791Z,8.03
2019-04-20T14:02:13.016Z,9.50
2019-04-20T14:04:52.816Z,8.77
2019-04-20T14:07:23.776Z,8.23
2019-04-20T14:09:53.469Z,9.23
2019-04-20T14:12:29.962Z,9.93
2019-04-20T14:14:55.146Z,8.07
2019-04-20T14:17:25.181Z,8.93
2019-04-20T14:19:57.039Z,9.40
2019-04-20T14:22:27.228Z,10.93
2019-04-20T14:24:57.320Z,8.37
2019-04-20T14:27:26.723Z,8.63
2019-04-20T14:30:15.384Z,8.27
2019-04-20T14:32:45.026Z,10.07
2019-04-20T14:35:14.657Z,7.80
2019-04-20T14:37:44.091Z,8.23
2019-04-20T14:40:14.632Z,9.93
2019-04-20T14:42:48.560Z,9.03
2019-04-20T14:45:16.546Z,7.60
2019-04-20T14:47:45.893Z,9.10
2019-04-20T14:50:17.903Z,7.47
2019-04-20T14:52:47.294Z,8.80
2019-04-20T14:55:17.710Z,10.27
2019-04-20T14:57:47.806Z,7.97
2019-04-20T15:00:39.550Z,8.03
2019-04-20T15:03:26.699Z,7.97
2019-04-20T15:05:59.957Z,11.60
2019-04-20T15:08:30.403Z,11.57
2019-04-20T15:11:01.023Z,8.30
2019-04-20T15:13:30.843Z,7.77
2019-04-20T15:16:00.144Z,9.30
2019-04-20T15:18:37.766Z,9.80
2019-04-20T15:21:09.323Z,9.00
2019-04-20T15:23:39.513Z,8.03
2019-04-20T15:26:08.762Z,10.37
2019-04-20T15:28:38.606Z,9.20
2019-04-20T15:31:10.062Z,7.67
2019-04-20T15:33:39.305Z,7.50
2019-04-20T15:36:08.388Z,7.23
2019-04-20T15:38:38.794Z,7.27
2019-04-20T15:41:10.182Z,8.50
2019-04-20T15:43:39.401Z,10.70
2019-04-20T15:46:09.614Z,10.50
2019-04-20T15:48:39.845Z,11.97
2019-04-20T15:51:09.944Z,11.57
2019-04-20T15:53:39.817Z,7.73
2019-04-20T15:56:11.521Z,8.27
2019-04-20T15:58:40.730Z,8.73
2019-04-20T16:01:10.456Z,8.30
2019-04-20T16:03:55.162Z,8.00
2019-04-20T16:06:25.210Z,8.60
2019-04-20T16:08:56.797Z,42.17
2019-04-20T16:11:26.676Z,19.40
2019-04-20T16:13:57.723Z,10.47
2019-04-20T16:16:27.837Z,7.73
2019-04-20T16:18:57.054Z,5.37
2019-04-20T16:21:29.827Z,6.80
2019-04-20T16:24:08.951Z,9.77
2019-04-20T16:26:45.489Z,18.20
2019-04-20T16:29:15.431Z,7.47
2019-04-20T16:31:47.258Z,12.47
2019-04-20T16:34:15.972Z,12.17
2019-04-20T16:36:46.352Z,12.40
2019-04-20T16:39:16.521Z,9.50
2019-04-20T16:41:46.476Z,9.83
2019-04-20T16:44:15.849Z,18.00
2019-04-20T16:46:45.909Z,37.23
2019-04-20T16:49:15.333Z,17.03
2019-04-20T16:51:45.079Z,11.90
2019-04-20T16:54:14.514Z,14.63
2019-04-20T16:56:44.529Z,17.17
2019-04-20T16:59:15.974Z,15.43
2019-04-20T17:01:46.533Z,11.80
2019-04-20T17:04:20.627Z,9.90
2019-04-20T17:07:06.003Z,11.13
2019-04-20T17:09:35.646Z,9.07
2019-04-20T17:12:05.846Z,12.90
2019-04-20T17:14:35.688Z,8.50
2019-04-20T17:17:05.295Z,10.07
2019-04-20T17:19:35.519Z,11.30
2019-04-20T17:22:05.504Z,9.17
2019-04-20T17:24:35.673Z,10.07
2019-04-20T17:27:24.258Z,12.67
2019-04-20T17:30:19.553Z,10.23
2019-04-20T17:32:47.529Z,11.07
2019-04-20T17:35:28.343Z,9.43
2019-04-20T17:37:50.000Z,14.97
2019-04-20T17:40:44.232Z,14.40
2019-04-20T17:43:00.140Z,12.57
2019-04-20T17:45:33.350Z,10.93
2019-04-20T17:48:08.770Z,10.77
2019-04-20T17:50:43.471Z,16.17
2019-04-20T17:53:10.372Z,13.37
2019-04-20T17:55:41.061Z,10.73
2019-04-20T17:58:12.159Z,11.43
2019-04-20T18:00:52.782Z,10.80
2019-04-20T18:03:58.585Z,11.93
2019-04-20T18:06:14.587Z,11.83
2019-04-20T18:08:45.499Z,12.57
2019-04-20T18:11:04.003Z,11.87
2019-04-20T18:13:30.358Z,11.97
2019-04-20T18:16:23.168Z,8.27
2019-04-20T18:18:56.947Z,9.77
2019-04-20T18:21:26.549Z,9.23
2019-04-20T18:23:56.385Z,11.43
2019-04-20T18:26:45.374Z,9.53
2019-04-20T18:29:16.674Z,10.00
2019-04-20T18:31:45.542Z,8.10
2019-04-20T18:34:22.656Z,8.40
2019-04-20T18:36:51.495Z,9.00
2019-04-20T18:39:29.166Z,8.67
2019-04-20T18:41:57.168Z,11.87
2019-04-20T18:44:30.554Z,10.27
2019-04-20T18:47:21.621Z,10.80
2019-04-20T18:49:38.580Z,9.00
2019-04-20T18:51:55.754Z,10.10
2019-04-20T18:54:28.760Z,9.63
2019-04-20T18:56:56.757Z,10.13
2019-04-20T18:59:31.800Z,8.47
2019-04-20T19:01:59.145Z,11.50
2019-04-20T19:04:30.049Z,9.10
2019-04-20T19:07:19.744Z,9.70
2019-04-20T19:09:53.285Z,10.73
2019-04-20T19:12:28.458Z,9.20
2019-04-20T19:15:12.695Z,9.40
2019-04-20T19:18:06.527Z,10.87
2019-04-20T19:20:35.003Z,11.33
2019-04-20T19:23:08.396Z,8.87
2019-04-20T19:25:40.949Z,10.93
2019-04-20T19:28:10.591Z,12.30
2019-04-20T19:30:50.329Z,13.50
2019-04-20T19:33:30.997Z,13.90
2019-04-20T19:35:56.353Z,10.97
2019-04-20T19:38:24.080Z,11.70
2019-04-20T19:40:58.290Z,11.87
2019-04-20T19:43:30.966Z,12.23
2019-04-20T19:46:36.602Z,13.60
2019-04-20T19:48:39.404Z,13.67
2019-04-20T19:51:22.370Z,11.90
2019-04-20T19:53:48.808Z,11.10
2019-04-20T19:56:08.195Z,13.07
2019-04-20T19:58:39.846Z,11.93
2019-04-20T20:01:01.637Z,11.63
2019-04-20T20:03:31.156Z,10.10
2019-04-20T20:06:01.553Z,14.47
2019-04-20T20:08:34.547Z,11.07
2019-04-20T20:11:04.857Z,15.07
2019-04-20T20:13:41.225Z,12.43
2019-04-20T20:16:10.476Z,12.37
2019-04-20T20:18:48.823Z,13.77
2019-04-20T20:21:27.284Z,12.50
2019-04-20T20:23:50.056Z,12.93
2019-04-20T20:26:29.024Z,14.47
2019-04-20T20:29:03.513Z,13.03
2019-04-20T20:31:31.040Z,16.33
2019-04-20T20:34:05.635Z,13.90
2019-04-20T20:36:35.019Z,15.07
2019-04-20T20:39:04.656Z,14.63
2019-04-20T20:41:50.399Z,15.17
2019-04-20T20:44:22.563Z,16.63
2019-04-20T20:46:52.134Z,12.80
2019-04-20T20:49:28.352Z,12.73
2019-04-20T20:52:02.792Z,14.13
2019-04-20T20:54:28.402Z,10.97
2019-04-20T20:56:49.958Z,11.20
2019-04-20T20:59:26.811Z,11.43
2019-04-20T21:01:52.063Z,11.33
2019-04-20T21:04:17.259Z,12.17
2019-04-20T21:06:46.955Z,16.20
2019-04-20T21:09:16.630Z,14.20
2019-04-20T21:11:46.367Z,13.70
2019-04-20T21:14:22.222Z,11.83
2019-04-20T21:16:57.349Z,13.50
2019-04-20T21:19:34.258Z,12.20
2019-04-20T21:21:55.671Z,12.97
2019-04-20T21:24:31.946Z,13.73
2019-04-20T21:27:08.853Z,14.43
2019-04-20T21:29:36.840Z,11.30
2019-04-20T21:32:08.666Z,9.73
2019-04-20T21:34:35.170Z,12.83
2019-04-20T21:37:10.625Z,12.87
2019-04-20T21:39:44.183Z,15.47
2019-04-20T21:42:12.586Z,11.37
2019-04-20T21:44:41.443Z,13.83
2019-04-20T21:47:09.145Z,12.67
2019-04-20T21:49:49.690Z,12.20
2019-04-20T21:52:18.961Z,13.70
2019-04-20T21:54:42.235Z,16.80
2019-04-20T21:57:14.359Z,15.10
2019-04-20T21:59:45.514Z,13.40
2019-04-20T22:02:19.473Z,20.97
2019-04-20T22:04:45.247Z,13.40
2019-04-20T22:07:16.451Z,13.20
2019-04-20T22:09:49.564Z,15.13
2019-04-20T22:12:18.454Z,13.73
2019-04-20T22:14:56.192Z,15.90
2019-04-20T22:17:24.592Z,13.03
2019-04-20T22:20:06.045Z,13.27
2019-04-20T22:22:38.688Z,12.57
2019-04-20T22:25:28.302Z,13.33
2019-04-20T22:27:42.291Z,13.07
2019-04-20T22:30:12.262Z,14.07
2019-04-20T22:32:43.786Z,12.63
2019-04-20T22:35:15.526Z,12.60
2019-04-20T22:37:52.090Z,13.17
2019-04-20T22:40:26.380Z,11.97
2019-04-20T22:42:58.553Z,14.60
2019-04-20T22:45:27.290Z,13.87
2019-04-20T22:48:02.265Z,15.27
2019-04-20T22:50:45.390Z,14.70
2019-04-20T22:53:21.314Z,13.20
2019-04-20T22:55:54.927Z,12.53
2019-04-20T22:58:15.558Z,12.43
2019-04-20T23:00:43.085Z,11.90
2019-04-20T23:03:02.971Z,13.57
2019-04-20T23:05:33.023Z,17.47
2019-04-20T23:08:02.521Z,14.30
2019-04-20T23:10:37.406Z,14.33
2019-04-20T23:13:03.220Z,15.23
2019-04-20T23:15:32.491Z,14.03
2019-04-20T23:18:02.237Z,12.40
2019-04-20T23:20:35.630Z,17.43
2019-04-20T23:23:02.998Z,14.70
2019-04-20T23:25:33.364Z,14.03
2019-04-20T23:28:08.165Z,14.77
2019-04-20T23:30:37.740Z,13.07
2019-04-20T23:33:04.537Z,14.37
2019-04-20T23:35:37.557Z,13.10
2019-04-20T23:38:11.035Z,14.10
2019-04-20T23:40:35.516Z,14.77
2019-04-20T23:43:25.455Z,15.30
2019-04-20T23:46:10.488Z,14.93
2019-04-20T23:48:46.402Z,15.63
2019-04-20T23:51:36.890Z,15.87
2019-04-20T23:53:55.520Z,17.27
2019-04-20T23:56:20.195Z,16.03
2019-04-20T23:58:52.805Z,13.90
